sensor_id;sensor_type;location;lat;lon;timestamp;P1;durP1;ratioP1;P2;durP2;ratioP2
14381;SDS011;7275;50.328;8.720;2023-04-03T00:00:55;1.23;;;1.00;;
14381;SDS011;7275;50.328;8.720;2023-04-03T00:03:23;1.30;;;1.20;;
14381;SDS011;7275;50.328;8.720;2023-04-03T00:05:51;1.17;;;0.93;;
14381;SDS011;7275;50.328;8.720;2023-04-03T00:08:19;1.70;;;1.10;;
14381;SDS011;7275;50.328;8.720;2023-04-03T00:10:48;2.53;;;1.30;;
14381;SDS011;7275;50.328;8.720;2023-04-03T00:13:16;2.93;;;1.27;;
14381;SDS011;7275;50.328;8.720;2023-04-03T00:15:44;1.40;;;1.10;;
14381;SDS011;7275;50.328;8.720;2023-04-03T00:18:11;4.33;;;1.00;;
14381;SDS011;7275;50.328;8.720;2023-04-03T00:20:39;1.60;;;1.00;;
14381;SDS011;7275;50.328;8.720;2023-04-03T00:23:06;3.00;;;1.07;;
14381;SDS011;7275;50.328;8.720;2023-04-03T00:25:34;2.07;;;1.23;;
14381;SDS011;7275;50.328;8.720;2023-04-03T00:28:03;2.93;;;1.13;;
14381;SDS011;7275;50.328;8.720;2023-04-03T00:30:31;1.13;;;1.00;;
14381;SDS011;7275;50.328;8.720;2023-04-03T00:33:00;2.40;;;1.50;;
14381;SDS011;7275;50.328;8.720;2023-04-03T00:35:28;1.47;;;1.00;;
14381;SDS011;7275;50.328;8.720;2023-04-03T00:37:55;1.33;;;1.07;;
14381;SDS011;7275;50.328;8.720;2023-04-03T00:40:24;1.23;;;1.10;;
14381;SDS011;7275;50.328;8.720;2023-04-03T00:42:55;1.70;;;1.07;;
14381;SDS011;7275;50.328;8.720;2023-04-03T00:45:30;1.47;;;1.00;;
14381;SDS011;7275;50.328;8.720;2023-04-03T00:48:01;1.60;;;1.27;;
14381;SDS011;7275;50.328;8.720;2023-04-03T00:50:32;1.00;;;0.80;;
14381;SDS011;7275;50.328;8.720;2023-04-03T00:53:03;1.13;;;1.03;;
14381;SDS011;7275;50.328;8.720;2023-04-03T00:55:32;2.67;;;1.10;;
14381;SDS011;7275;50.328;8.720;2023-04-03T00:58:01;1.70;;;1.10;;
14381;SDS011;7275;50.328;8.720;2023-04-03T01:00:30;1.50;;;1.03;;
14381;SDS011;7275;50.328;8.720;2023-04-03T01:02:58;1.97;;;1.00;;
14381;SDS011;7275;50.328;8.720;2023-04-03T01:05:26;1.73;;;1.10;;
14381;SDS011;7275;50.328;8.720;2023-04-03T01:07:54;1.50;;;1.00;;
14381;SDS011;7275;50.328;8.720;2023-04-03T01:10:21;1.77;;;1.10;;
14381;SDS011;7275;50.328;8.720;2023-04-03T01:12:51;1.87;;;1.20;;
14381;SDS011;7275;50.328;8.720;2023-04-03T01:15:20;1.57;;;1.10;;
14381;SDS011;7275;50.328;8.720;2023-04-03T01:17:51;2.37;;;1.00;;
14381;SDS011;7275;50.328;8.720;2023-04-03T01:20:39;1.63;;;1.00;;
14381;SDS011;7275;50.328;8.720;2023-04-03T01:23:17;2.03;;;0.90;;
14381;SDS011;7275;50.328;8.720;2023-04-03T01:25:56;2.03;;;1.10;;
14381;SDS011;7275;50.328;8.720;2023-04-03T01:28:25;1.40;;;1.20;;
14381;SDS011;7275;50.328;8.720;2023-04-03T01:30:56;1.80;;;1.00;;
14381;SDS011;7275;50.328;8.720;2023-04-03T01:33:31;1.20;;;1.10;;
14381;SDS011;7275;50.328;8.720;2023-04-03T01:35:58;2.07;;;1.20;;
14381;SDS011;7275;50.328;8.720;2023-04-03T01:38:26;1.13;;;1.00;;
14381;SDS011;7275;50.328;8.720;2023-04-03T01:40:53;1.43;;;1.00;;
14381;SDS011;7275;50.328;8.720;2023-04-03T01:43:21;2.00;;;1.20;;
14381;SDS011;7275;50.328;8.720;2023-04-03T01:45:48;1.40;;;1.00;;
14381;SDS011;7275;50.328;8.720;2023-04-03T01:48:16;2.70;;;1.13;;
14381;SDS011;7275;50.328;8.720;2023-04-03T01:50:45;1.03;;;0.90;;
14381;SDS011;7275;50.328;8.720;2023-04-03T01:53:12;1.60;;;1.17;;
14381;SDS011;7275;50.328;8.720;2023-04-03T01:55:40;1.20;;;1.07;;
14381;SDS011;7275;50.328;8.720;2023-04-03T01:58:07;2.30;;;1.17;;
14381;SDS011;7275;50.328;8.720;2023-04-03T02:00:35;1.97;;;1.03;;
14381;SDS011;7275;50.328;8.720;2023-04-03T02:03:03;1.67;;;1.10;;
14381;SDS011;7275;50.328;8.720;2023-04-03T02:05:31;1.80;;;1.20;;
14381;SDS011;7275;50.328;8.720;2023-04-03T02:08:00;2.50;;;1.23;;
14381;SDS011;7275;50.328;8.720;2023-04-03T02:10:28;2.40;;;1.20;;
14381;SDS011;7275;50.328;8.720;2023-04-03T02:12:55;2.57;;;1.20;;
14381;SDS011;7275;50.328;8.720;2023-04-03T02:15:23;1.87;;;1.03;;
14381;SDS011;7275;50.328;8.720;2023-04-03T02:17:50;2.37;;;1.20;;
14381;SDS011;7275;50.328;8.720;2023-04-03T02:20:18;1.97;;;0.97;;
14381;SDS011;7275;50.328;8.720;2023-04-03T02:22:46;1.93;;;1.20;;
14381;SDS011;7275;50.328;8.720;2023-04-03T02:25:15;1.87;;;1.20;;
14381;SDS011;7275;50.328;8.720;2023-04-03T02:27:44;3.17;;;1.30;;
14381;SDS011;7275;50.328;8.720;2023-04-03T02:30:11;2.10;;;1.20;;
14381;SDS011;7275;50.328;8.720;2023-04-03T02:32:40;2.47;;;1.10;;
14381;SDS011;7275;50.328;8.720;2023-04-03T02:35:09;2.07;;;1.20;;
14381;SDS011;7275;50.328;8.720;2023-04-03T02:37:37;2.27;;;1.17;;
14381;SDS011;7275;50.328;8.720;2023-04-03T02:40:05;1.67;;;1.00;;
14381;SDS011;7275;50.328;8.720;2023-04-03T02:42:34;1.50;;;1.10;;
14381;SDS011;7275;50.328;8.720;2023-04-03T02:45:02;2.00;;;1.13;;
14381;SDS011;7275;50.328;8.720;2023-04-03T02:47:30;2.57;;;1.30;;
14381;SDS011;7275;50.328;8.720;2023-04-03T02:49:58;1.77;;;1.07;;
14381;SDS011;7275;50.328;8.720;2023-04-03T02:52:25;1.43;;;1.10;;
14381;SDS011;7275;50.328;8.720;2023-04-03T02:54:53;2.80;;;1.20;;
14381;SDS011;7275;50.328;8.720;2023-04-03T02:57:20;2.87;;;1.33;;
14381;SDS011;7275;50.328;8.720;2023-04-03T02:59:50;1.67;;;0.90;;
14381;SDS011;7275;50.328;8.720;2023-04-03T03:02:17;2.17;;;1.10;;
14381;SDS011;7275;50.328;8.720;2023-04-03T03:04:45;2.77;;;1.13;;
14381;SDS011;7275;50.328;8.720;2023-04-03T03:07:12;2.23;;;1.10;;
14381;SDS011;7275;50.328;8.720;2023-04-03T03:09:40;2.63;;;1.33;;
14381;SDS011;7275;50.328;8.720;2023-04-03T03:12:07;2.47;;;1.07;;
14381;SDS011;7275;50.328;8.720;2023-04-03T03:14:35;1.70;;;1.17;;
14381;SDS011;7275;50.328;8.720;2023-04-03T03:17:04;1.43;;;1.07;;
14381;SDS011;7275;50.328;8.720;2023-04-03T03:19:31;3.47;;;1.30;;
14381;SDS011;7275;50.328;8.720;2023-04-03T03:21:58;2.83;;;1.10;;
14381;SDS011;7275;50.328;8.720;2023-04-03T03:24:26;1.87;;;1.00;;
14381;SDS011;7275;50.328;8.720;2023-04-03T03:26:53;2.20;;;1.23;;
14381;SDS011;7275;50.328;8.720;2023-04-03T03:29:21;2.23;;;1.10;;
14381;SDS011;7275;50.328;8.720;2023-04-03T03:31:48;1.40;;;0.90;;
14381;SDS011;7275;50.328;8.720;2023-04-03T03:34:17;2.97;;;1.30;;
14381;SDS011;7275;50.328;8.720;2023-04-03T03:36:45;3.03;;;1.20;;
14381;SDS011;7275;50.328;8.720;2023-04-03T03:39:12;2.40;;;1.10;;
14381;SDS011;7275;50.328;8.720;2023-04-03T03:41:40;2.13;;;1.20;;
14381;SDS011;7275;50.328;8.720;2023-04-03T03:44:07;1.93;;;1.10;;
14381;SDS011;7275;50.328;8.720;2023-04-03T03:46:35;2.37;;;1.20;;
14381;SDS011;7275;50.328;8.720;2023-04-03T03:49:03;2.80;;;1.23;;
14381;SDS011;7275;50.328;8.720;2023-04-03T03:51:31;5.53;;;1.30;;
14381;SDS011;7275;50.328;8.720;2023-04-03T03:53:59;3.23;;;1.40;;
14381;SDS011;7275;50.328;8.720;2023-04-03T03:56:26;2.10;;;1.23;;
14381;SDS011;7275;50.328;8.720;2023-04-03T03:58:54;1.53;;;1.10;;
14381;SDS011;7275;50.328;8.720;2023-04-03T04:01:22;3.33;;;1.20;;
14381;SDS011;7275;50.328;8.720;2023-04-03T04:03:49;1.70;;;1.17;;
14381;SDS011;7275;50.328;8.720;2023-04-03T04:06:17;1.57;;;1.00;;
14381;SDS011;7275;50.328;8.720;2023-04-03T04:08:46;1.97;;;1.10;;
14381;SDS011;7275;50.328;8.720;2023-04-03T04:11:14;1.70;;;1.10;;
14381;SDS011;7275;50.328;8.720;2023-04-03T04:13:41;1.57;;;1.10;;
14381;SDS011;7275;50.328;8.720;2023-04-03T04:16:09;3.20;;;1.37;;
14381;SDS011;7275;50.328;8.720;2023-04-03T04:18:36;2.10;;;1.30;;
14381;SDS011;7275;50.328;8.720;2023-04-03T04:21:04;2.60;;;1.20;;
14381;SDS011;7275;50.328;8.720;2023-04-03T04:23:31;2.83;;;1.27;;
14381;SDS011;7275;50.328;8.720;2023-04-03T04:26:00;4.37;;;1.27;;
14381;SDS011;7275;50.328;8.720;2023-04-03T04:28:28;3.07;;;1.20;;
14381;SDS011;7275;50.328;8.720;2023-04-03T04:30:55;2.80;;;1.20;;
14381;SDS011;7275;50.328;8.720;2023-04-03T04:33:23;1.87;;;1.20;;
14381;SDS011;7275;50.328;8.720;2023-04-03T04:35:51;3.20;;;1.40;;
14381;SDS011;7275;50.328;8.720;2023-04-03T04:38:19;2.70;;;1.53;;
14381;SDS011;7275;50.328;8.720;2023-04-03T04:40:46;2.23;;;1.50;;
14381;SDS011;7275;50.328;8.720;2023-04-03T04:43:16;2.57;;;1.40;;
14381;SDS011;7275;50.328;8.720;2023-04-03T04:45:43;3.10;;;1.50;;
14381;SDS011;7275;50.328;8.720;2023-04-03T04:48:11;2.23;;;1.23;;
14381;SDS011;7275;50.328;8.720;2023-04-03T04:50:39;4.13;;;1.50;;
14381;SDS011;7275;50.328;8.720;2023-04-03T04:53:07;2.13;;;1.40;;
14381;SDS011;7275;50.328;8.720;2023-04-03T04:55:34;4.60;;;1.60;;
14381;SDS011;7275;50.328;8.720;2023-04-03T04:58:02;2.97;;;1.53;;
14381;SDS011;7275;50.328;8.720;2023-04-03T05:00:31;3.03;;;1.40;;
14381;SDS011;7275;50.328;8.720;2023-04-03T05:02:59;3.73;;;1.47;;
14381;SDS011;7275;50.328;8.720;2023-04-03T05:05:26;5.07;;;1.40;;
14381;SDS011;7275;50.328;8.720;2023-04-03T05:07:54;1.70;;;1.30;;
14381;SDS011;7275;50.328;8.720;2023-04-03T05:10:21;2.17;;;1.30;;
14381;SDS011;7275;50.328;8.720;2023-04-03T05:12:48;3.10;;;1.30;;
14381;SDS011;7275;50.328;8.720;2023-04-03T05:15:16;1.77;;;1.10;;
14381;SDS011;7275;50.328;8.720;2023-04-03T05:17:45;4.17;;;1.40;;
14381;SDS011;7275;50.328;8.720;2023-04-03T05:20:12;1.80;;;1.20;;
14381;SDS011;7275;50.328;8.720;2023-04-03T05:22:40;2.03;;;1.20;;
14381;SDS011;7275;50.328;8.720;2023-04-03T05:25:08;2.30;;;1.40;;
14381;SDS011;7275;50.328;8.720;2023-04-03T05:27:36;1.63;;;1.17;;
14381;SDS011;7275;50.328;8.720;2023-04-03T05:30:04;2.27;;;1.30;;
14381;SDS011;7275;50.328;8.720;2023-04-03T05:32:32;2.20;;;1.40;;
14381;SDS011;7275;50.328;8.720;2023-04-03T05:35:01;1.83;;;1.17;;
14381;SDS011;7275;50.328;8.720;2023-04-03T05:37:29;2.27;;;1.40;;
14381;SDS011;7275;50.328;8.720;2023-04-03T05:39:56;4.00;;;1.50;;
14381;SDS011;7275;50.328;8.720;2023-04-03T05:42:24;2.00;;;1.20;;
14381;SDS011;7275;50.328;8.720;2023-04-03T05:44:51;2.77;;;1.23;;
14381;SDS011;7275;50.328;8.720;2023-04-03T05:47:19;3.87;;;1.50;;
14381;SDS011;7275;50.328;8.720;2023-04-03T05:49:46;3.30;;;1.37;;
14381;SDS011;7275;50.328;8.720;2023-04-03T05:52:19;2.23;;;1.30;;
14381;SDS011;7275;50.328;8.720;2023-04-03T05:54:49;3.13;;;1.57;;
14381;SDS011;7275;50.328;8.720;2023-04-03T05:57:17;3.30;;;1.60;;
14381;SDS011;7275;50.328;8.720;2023-04-03T05:59:45;2.40;;;1.53;;
14381;SDS011;7275;50.328;8.720;2023-04-03T06:02:15;2.90;;;1.47;;
14381;SDS011;7275;50.328;8.720;2023-04-03T06:04:43;3.90;;;1.60;;
14381;SDS011;7275;50.328;8.720;2023-04-03T06:07:13;3.77;;;1.70;;
14381;SDS011;7275;50.328;8.720;2023-04-03T06:09:44;2.37;;;1.50;;
14381;SDS011;7275;50.328;8.720;2023-04-03T06:12:12;2.90;;;1.40;;
14381;SDS011;7275;50.328;8.720;2023-04-03T06:14:40;2.67;;;1.47;;
14381;SDS011;7275;50.328;8.720;2023-04-03T06:17:07;3.23;;;1.80;;
14381;SDS011;7275;50.328;8.720;2023-04-03T06:19:35;6.17;;;2.10;;
14381;SDS011;7275;50.328;8.720;2023-04-03T06:22:03;4.37;;;1.90;;
14381;SDS011;7275;50.328;8.720;2023-04-03T06:24:31;2.70;;;1.50;;
14381;SDS011;7275;50.328;8.720;2023-04-03T06:27:00;3.30;;;1.63;;
14381;SDS011;7275;50.328;8.720;2023-04-03T06:29:27;2.70;;;1.70;;
14381;SDS011;7275;50.328;8.720;2023-04-03T06:31:55;2.83;;;1.60;;
14381;SDS011;7275;50.328;8.720;2023-04-03T06:34:23;2.73;;;1.60;;
14381;SDS011;7275;50.328;8.720;2023-04-03T06:36:50;3.50;;;1.93;;
14381;SDS011;7275;50.328;8.720;2023-04-03T06:39:19;2.77;;;1.80;;
14381;SDS011;7275;50.328;8.720;2023-04-03T06:41:48;3.33;;;1.90;;
14381;SDS011;7275;50.328;8.720;2023-04-03T06:44:18;3.43;;;2.03;;
14381;SDS011;7275;50.328;8.720;2023-04-03T06:46:46;3.40;;;2.00;;
14381;SDS011;7275;50.328;8.720;2023-04-03T06:49:13;3.20;;;2.13;;
14381;SDS011;7275;50.328;8.720;2023-04-03T06:51:41;3.10;;;1.80;;
14381;SDS011;7275;50.328;8.720;2023-04-03T06:54:08;4.13;;;1.83;;
14381;SDS011;7275;50.328;8.720;2023-04-03T06:56:36;2.83;;;1.83;;
14381;SDS011;7275;50.328;8.720;2023-04-03T06:59:03;4.70;;;1.77;;
14381;SDS011;7275;50.328;8.720;2023-04-03T07:01:32;3.60;;;1.80;;
14381;SDS011;7275;50.328;8.720;2023-04-03T07:04:00;3.97;;;1.60;;
14381;SDS011;7275;50.328;8.720;2023-04-03T07:06:27;3.80;;;1.80;;
14381;SDS011;7275;50.328;8.720;2023-04-03T07:08:55;2.43;;;1.63;;
14381;SDS011;7275;50.328;8.720;2023-04-03T07:11:22;4.00;;;1.90;;
14381;SDS011;7275;50.328;8.720;2023-04-03T07:13:50;2.67;;;1.90;;
14381;SDS011;7275;50.328;8.720;2023-04-03T07:16:18;3.30;;;1.70;;
14381;SDS011;7275;50.328;8.720;2023-04-03T07:18:47;3.23;;;1.90;;
14381;SDS011;7275;50.328;8.720;2023-04-03T07:21:14;3.43;;;1.63;;
14381;SDS011;7275;50.328;8.720;2023-04-03T07:23:42;4.07;;;1.50;;
14381;SDS011;7275;50.328;8.720;2023-04-03T07:26:09;2.20;;;1.60;;
14381;SDS011;7275;50.328;8.720;2023-04-03T07:28:37;2.77;;;1.77;;
14381;SDS011;7275;50.328;8.720;2023-04-03T07:31:06;3.40;;;1.90;;
14381;SDS011;7275;50.328;8.720;2023-04-03T07:33:38;3.53;;;1.83;;
14381;SDS011;7275;50.328;8.720;2023-04-03T07:36:08;2.83;;;1.93;;
14381;SDS011;7275;50.328;8.720;2023-04-03T07:38:37;2.90;;;1.77;;
14381;SDS011;7275;50.328;8.720;2023-04-03T07:41:04;2.60;;;1.70;;
14381;SDS011;7275;50.328;8.720;2023-04-03T07:43:32;2.07;;;1.60;;
14381;SDS011;7275;50.328;8.720;2023-04-03T07:46:00;3.50;;;1.80;;
14381;SDS011;7275;50.328;8.720;2023-04-03T07:48:28;2.77;;;1.80;;
14381;SDS011;7275;50.328;8.720;2023-04-03T07:50:58;1.93;;;1.40;;
14381;SDS011;7275;50.328;8.720;2023-04-03T07:53:27;3.33;;;1.80;;
14381;SDS011;7275;50.328;8.720;2023-04-03T07:55:56;2.33;;;1.60;;
14381;SDS011;7275;50.328;8.720;2023-04-03T07:58:24;4.97;;;1.90;;
14381;SDS011;7275;50.328;8.720;2023-04-03T08:00:52;2.47;;;1.60;;
14381;SDS011;7275;50.328;8.720;2023-04-03T08:03:19;3.53;;;1.60;;
14381;SDS011;7275;50.328;8.720;2023-04-03T08:05:48;4.17;;;1.70;;
14381;SDS011;7275;50.328;8.720;2023-04-03T08:08:17;3.70;;;1.63;;
14381;SDS011;7275;50.328;8.720;2023-04-03T08:10:49;3.13;;;1.70;;
14381;SDS011;7275;50.328;8.720;2023-04-03T08:13:17;3.27;;;1.93;;
14381;SDS011;7275;50.328;8.720;2023-04-03T08:15:45;3.37;;;1.93;;
14381;SDS011;7275;50.328;8.720;2023-04-03T08:18:13;4.10;;;1.90;;
14381;SDS011;7275;50.328;8.720;2023-04-03T08:20:40;3.13;;;1.73;;
14381;SDS011;7275;50.328;8.720;2023-04-03T08:23:08;3.90;;;1.70;;
14381;SDS011;7275;50.328;8.720;2023-04-03T08:25:39;2.77;;;1.53;;
14381;SDS011;7275;50.328;8.720;2023-04-03T08:28:08;3.23;;;1.97;;
14381;SDS011;7275;50.328;8.720;2023-04-03T08:30:38;3.73;;;1.60;;
14381;SDS011;7275;50.328;8.720;2023-04-03T08:33:09;3.57;;;1.50;;
14381;SDS011;7275;50.328;8.720;2023-04-03T08:35:38;3.33;;;1.53;;
14381;SDS011;7275;50.328;8.720;2023-04-03T08:38:07;4.30;;;1.50;;
14381;SDS011;7275;50.328;8.720;2023-04-03T08:40:34;2.13;;;1.43;;
14381;SDS011;7275;50.328;8.720;2023-04-03T08:43:13;2.70;;;1.30;;
14381;SDS011;7275;50.328;8.720;2023-04-03T08:45:57;3.33;;;1.50;;
14381;SDS011;7275;50.328;8.720;2023-04-03T08:48:31;2.47;;;1.30;;
14381;SDS011;7275;50.328;8.720;2023-04-03T08:51:02;2.20;;;1.40;;
14381;SDS011;7275;50.328;8.720;2023-04-03T08:53:39;2.73;;;1.40;;
14381;SDS011;7275;50.328;8.720;2023-04-03T08:56:09;1.63;;;1.30;;
14381;SDS011;7275;50.328;8.720;2023-04-03T08:58:41;2.77;;;1.43;;
14381;SDS011;7275;50.328;8.720;2023-04-03T09:01:17;2.17;;;1.30;;
14381;SDS011;7275;50.328;8.720;2023-04-03T09:03:46;3.23;;;1.50;;
14381;SDS011;7275;50.328;8.720;2023-04-03T09:06:14;2.83;;;1.50;;
14381;SDS011;7275;50.328;8.720;2023-04-03T09:08:46;2.23;;;1.47;;
14381;SDS011;7275;50.328;8.720;2023-04-03T09:11:20;2.67;;;1.47;;
14381;SDS011;7275;50.328;8.720;2023-04-03T09:13:56;3.10;;;1.40;;
14381;SDS011;7275;50.328;8.720;2023-04-03T09:16:32;2.30;;;1.40;;
14381;SDS011;7275;50.328;8.720;2023-04-03T09:19:07;2.20;;;1.50;;
14381;SDS011;7275;50.328;8.720;2023-04-03T09:21:42;2.50;;;1.60;;
14381;SDS011;7275;50.328;8.720;2023-04-03T09:24:10;2.70;;;1.40;;
14381;SDS011;7275;50.328;8.720;2023-04-03T09:26:41;3.30;;;1.30;;
14381;SDS011;7275;50.328;8.720;2023-04-03T09:29:15;2.37;;;1.30;;
14381;SDS011;7275;50.328;8.720;2023-04-03T09:31:46;2.20;;;1.30;;
14381;SDS011;7275;50.328;8.720;2023-04-03T09:34:17;2.17;;;1.43;;
14381;SDS011;7275;50.328;8.720;2023-04-03T09:36:49;3.17;;;1.60;;
14381;SDS011;7275;50.328;8.720;2023-04-03T09:39:20;2.23;;;1.50;;
14381;SDS011;7275;50.328;8.720;2023-04-03T09:41:56;2.47;;;1.40;;
14381;SDS011;7275;50.328;8.720;2023-04-03T09:44:28;1.50;;;1.20;;
14381;SDS011;7275;50.328;8.720;2023-04-03T09:46:57;1.53;;;1.10;;
14381;SDS011;7275;50.328;8.720;2023-04-03T09:49:26;1.30;;;1.10;;
14381;SDS011;7275;50.328;8.720;2023-04-03T09:51:54;2.33;;;1.60;;
14381;SDS011;7275;50.328;8.720;2023-04-03T09:57:08;2.20;;;1.23;;
14381;SDS011;7275;50.328;8.720;2023-04-03T09:59:42;2.37;;;1.40;;
14381;SDS011;7275;50.328;8.720;2023-04-03T10:02:23;1.58;;;1.17;;
14381;SDS011;7275;50.328;8.720;2023-04-03T10:04:59;2.95;;;1.48;;
14381;SDS011;7275;50.328;8.720;2023-04-03T10:07:31;1.63;;;1.25;;
14381;SDS011;7275;50.328;8.720;2023-04-03T10:10:02;1.80;;;1.38;;
14381;SDS011;7275;50.328;8.720;2023-04-03T10:12:43;2.45;;;1.52;;
14381;SDS011;7275;50.328;8.720;2023-04-03T10:15:13;2.13;;;1.30;;
14381;SDS011;7275;50.328;8.720;2023-04-03T10:17:47;1.42;;;1.23;;
14381;SDS011;7275;50.328;8.720;2023-04-03T10:20:29;2.20;;;1.40;;
14381;SDS011;7275;50.328;8.720;2023-04-03T10:23:02;2.10;;;1.27;;
14381;SDS011;7275;50.328;8.720;2023-04-03T10:25:48;1.85;;;1.30;;
14381;SDS011;7275;50.328;8.720;2023-04-03T10:28:27;2.60;;;1.55;;
14381;SDS011;7275;50.328;8.720;2023-04-03T10:31:04;1.67;;;1.20;;
14381;SDS011;7275;50.328;8.720;2023-04-03T10:33:41;2.35;;;1.65;;
14381;SDS011;7275;50.328;8.720;2023-04-03T10:36:22;3.17;;;1.27;;
14381;SDS011;7275;50.328;8.720;2023-04-03T10:39:00;1.80;;;1.30;;
14381;SDS011;7275;50.328;8.720;2023-04-03T10:41:34;1.50;;;1.25;;
14381;SDS011;7275;50.328;8.720;2023-04-03T10:44:15;2.13;;;1.40;;
14381;SDS011;7275;50.328;8.720;2023-04-03T10:46:49;1.52;;;1.20;;
14381;SDS011;7275;50.328;8.720;2023-04-03T10:49:24;2.65;;;1.25;;
14381;SDS011;7275;50.328;8.720;2023-04-03T10:52:06;2.22;;;1.40;;
14381;SDS011;7275;50.328;8.720;2023-04-03T10:54:38;1.67;;;1.38;;
14381;SDS011;7275;50.328;8.720;2023-04-03T10:57:08;1.60;;;1.10;;
14381;SDS011;7275;50.328;8.720;2023-04-03T10:59:40;1.65;;;1.30;;
14381;SDS011;7275;50.328;8.720;2023-04-03T11:02:13;2.05;;;1.40;;
14381;SDS011;7275;50.328;8.720;2023-04-03T11:04:47;2.08;;;1.35;;
14381;SDS011;7275;50.328;8.720;2023-04-03T11:07:18;1.73;;;1.30;;
14381;SDS011;7275;50.328;8.720;2023-04-03T11:09:50;1.75;;;1.20;;
14381;SDS011;7275;50.328;8.720;2023-04-03T11:12:23;1.67;;;1.38;;
14381;SDS011;7275;50.328;8.720;2023-04-03T11:14:54;2.25;;;1.27;;
14381;SDS011;7275;50.328;8.720;2023-04-03T11:17:28;1.80;;;1.13;;
14381;SDS011;7275;50.328;8.720;2023-04-03T11:20:01;1.98;;;1.27;;
14381;SDS011;7275;50.328;8.720;2023-04-03T11:22:38;1.75;;;1.20;;
14381;SDS011;7275;50.328;8.720;2023-04-03T11:25:14;1.70;;;1.40;;
14381;SDS011;7275;50.328;8.720;2023-04-03T11:27:48;2.10;;;1.40;;
14381;SDS011;7275;50.328;8.720;2023-04-03T11:30:22;2.45;;;1.40;;
14381;SDS011;7275;50.328;8.720;2023-04-03T11:33:08;2.03;;;1.40;;
14381;SDS011;7275;50.328;8.720;2023-04-03T11:35:59;1.42;;;1.20;;
14381;SDS011;7275;50.328;8.720;2023-04-03T11:38:51;1.40;;;1.20;;
14381;SDS011;7275;50.328;8.720;2023-04-03T11:41:24;2.22;;;1.27;;
14381;SDS011;7275;50.328;8.720;2023-04-03T11:43:57;2.38;;;1.30;;
14381;SDS011;7275;50.328;8.720;2023-04-03T11:55:41;1.95;;;1.20;;
14381;SDS011;7275;50.328;8.720;2023-04-03T11:58:11;2.63;;;1.30;;
14381;SDS011;7275;50.328;8.720;2023-04-03T12:00:48;1.40;;;1.10;;
14381;SDS011;7275;50.328;8.720;2023-04-03T12:06:43;1.45;;;1.00;;
14381;SDS011;7275;50.328;8.720;2023-04-03T12:12:56;1.33;;;1.08;;
14381;SDS011;7275;50.328;8.720;2023-04-03T12:18:31;1.98;;;1.30;;
14381;SDS011;7275;50.328;8.720;2023-04-03T12:21:07;2.63;;;1.42;;
14381;SDS011;7275;50.328;8.720;2023-04-03T12:23:37;1.73;;;1.30;;
14381;SDS011;7275;50.328;8.720;2023-04-03T12:26:25;1.83;;;1.30;;
14381;SDS011;7275;50.328;8.720;2023-04-03T12:29:13;2.05;;;1.52;;
14381;SDS011;7275;50.328;8.720;2023-04-03T12:31:46;1.80;;;1.45;;
14381;SDS011;7275;50.328;8.720;2023-04-03T12:34:36;1.90;;;1.35;;
14381;SDS011;7275;50.328;8.720;2023-04-03T12:37:19;2.22;;;1.33;;
14381;SDS011;7275;50.328;8.720;2023-04-03T12:40:02;2.35;;;1.20;;
14381;SDS011;7275;50.328;8.720;2023-04-03T12:42:41;1.67;;;1.20;;
14381;SDS011;7275;50.328;8.720;2023-04-03T12:45:28;1.75;;;1.27;;
14381;SDS011;7275;50.328;8.720;2023-04-03T12:48:12;1.38;;;1.10;;
14381;SDS011;7275;50.328;8.720;2023-04-03T12:50:42;2.13;;;1.42;;
14381;SDS011;7275;50.328;8.720;2023-04-03T12:53:12;2.63;;;1.45;;
14381;SDS011;7275;50.328;8.720;2023-04-03T12:55:45;1.63;;;1.30;;
14381;SDS011;7275;50.328;8.720;2023-04-03T12:58:13;1.20;;;1.00;;
14381;SDS011;7275;50.328;8.720;2023-04-03T13:00:42;2.33;;;1.50;;
14381;SDS011;7275;50.328;8.720;2023-04-03T13:03:19;1.45;;;1.20;;
14381;SDS011;7275;50.328;8.720;2023-04-03T13:05:50;1.55;;;1.30;;
14381;SDS011;7275;50.328;8.720;2023-04-03T13:08:17;1.30;;;1.17;;
14381;SDS011;7275;50.328;8.720;2023-04-03T13:10:50;1.85;;;1.20;;
14381;SDS011;7275;50.328;8.720;2023-04-03T13:13:21;1.10;;;1.00;;
14381;SDS011;7275;50.328;8.720;2023-04-03T13:15:50;1.40;;;1.17;;
14381;SDS011;7275;50.328;8.720;2023-04-03T13:18:24;1.70;;;1.10;;
14381;SDS011;7275;50.328;8.720;2023-04-03T13:20:53;1.63;;;1.20;;
14381;SDS011;7275;50.328;8.720;2023-04-03T13:23:26;2.75;;;1.27;;
14381;SDS011;7275;50.328;8.720;2023-04-03T13:25:56;1.30;;;1.10;;
14381;SDS011;7275;50.328;8.720;2023-04-03T13:28:27;2.10;;;1.58;;
14381;SDS011;7275;50.328;8.720;2023-04-03T13:31:06;1.90;;;1.70;;
14381;SDS011;7275;50.328;8.720;2023-04-03T13:33:36;1.92;;;1.30;;
14381;SDS011;7275;50.328;8.720;2023-04-03T13:36:05;1.60;;;0.98;;
14381;SDS011;7275;50.328;8.720;2023-04-03T13:38:35;1.35;;;0.90;;
14381;SDS011;7275;50.328;8.720;2023-04-03T13:41:20;1.05;;;0.90;;
14381;SDS011;7275;50.328;8.720;2023-04-03T13:43:51;0.90;;;0.80;;
14381;SDS011;7275;50.328;8.720;2023-04-03T13:46:31;1.38;;;1.13;;
14381;SDS011;7275;50.328;8.720;2023-04-03T13:48:59;1.45;;;1.00;;
14381;SDS011;7275;50.328;8.720;2023-04-03T13:51:45;1.00;;;0.85;;
14381;SDS011;7275;50.328;8.720;2023-04-03T13:54:29;1.33;;;1.08;;
14381;SDS011;7275;50.328;8.720;2023-04-03T13:57:01;1.90;;;1.10;;
14381;SDS011;7275;50.328;8.720;2023-04-03T13:59:30;0.98;;;0.88;;
14381;SDS011;7275;50.328;8.720;2023-04-03T14:02:16;1.10;;;1.00;;
14381;SDS011;7275;50.328;8.720;2023-04-03T14:04:51;1.15;;;1.00;;
14381;SDS011;7275;50.328;8.720;2023-04-03T14:07:22;1.25;;;1.05;;
14381;SDS011;7275;50.328;8.720;2023-04-03T14:09:51;1.55;;;1.10;;
14381;SDS011;7275;50.328;8.720;2023-04-03T14:12:24;1.55;;;1.38;;
14381;SDS011;7275;50.328;8.720;2023-04-03T14:14:57;1.77;;;1.10;;
14381;SDS011;7275;50.328;8.720;2023-04-03T14:17:25;1.20;;;0.85;;
14381;SDS011;7275;50.328;8.720;2023-04-03T14:19:54;1.25;;;1.10;;
14381;SDS011;7275;50.328;8.720;2023-04-03T14:22:24;1.42;;;1.05;;
14381;SDS011;7275;50.328;8.720;2023-04-03T14:24:52;1.25;;;1.08;;
14381;SDS011;7275;50.328;8.720;2023-04-03T14:27:23;1.95;;;1.15;;
14381;SDS011;7275;50.328;8.720;2023-04-03T14:29:53;1.90;;;1.10;;
14381;SDS011;7275;50.328;8.720;2023-04-03T14:32:23;1.83;;;1.10;;
14381;SDS011;7275;50.328;8.720;2023-04-03T14:34:51;1.38;;;1.05;;
14381;SDS011;7275;50.328;8.720;2023-04-03T14:37:21;1.20;;;0.90;;
14381;SDS011;7275;50.328;8.720;2023-04-03T14:39:50;1.70;;;1.00;;
14381;SDS011;7275;50.328;8.720;2023-04-03T14:42:20;2.25;;;0.90;;
14381;SDS011;7275;50.328;8.720;2023-04-03T14:44:50;1.85;;;1.00;;
14381;SDS011;7275;50.328;8.720;2023-04-03T14:47:18;2.20;;;0.93;;
14381;SDS011;7275;50.328;8.720;2023-04-03T14:49:57;1.25;;;0.90;;
14381;SDS011;7275;50.328;8.720;2023-04-03T14:52:26;0.95;;;0.85;;
14381;SDS011;7275;50.328;8.720;2023-04-03T14:54:55;1.45;;;1.00;;
14381;SDS011;7275;50.328;8.720;2023-04-03T14:57:25;2.53;;;0.90;;
14381;SDS011;7275;50.328;8.720;2023-04-03T14:59:54;1.73;;;1.13;;
14381;SDS011;7275;50.328;8.720;2023-04-03T15:02:26;0.95;;;0.80;;
14381;SDS011;7275;50.328;8.720;2023-04-03T15:04:57;1.70;;;1.00;;
14381;SDS011;7275;50.328;8.720;2023-04-03T15:07:26;1.08;;;0.90;;
14381;SDS011;7275;50.328;8.720;2023-04-03T15:09:56;1.10;;;1.00;;
14381;SDS011;7275;50.328;8.720;2023-04-03T15:12:25;1.98;;;1.10;;
14381;SDS011;7275;50.328;8.720;2023-04-03T15:14:53;1.27;;;0.93;;
14381;SDS011;7275;50.328;8.720;2023-04-03T15:17:28;1.15;;;1.00;;
14381;SDS011;7275;50.328;8.720;2023-04-03T15:19:55;2.45;;;1.50;;
14381;SDS011;7275;50.328;8.720;2023-04-03T15:22:23;1.40;;;1.00;;
14381;SDS011;7275;50.328;8.720;2023-04-03T15:24:50;1.25;;;1.00;;
14381;SDS011;7275;50.328;8.720;2023-04-03T15:27:18;1.10;;;1.00;;
14381;SDS011;7275;50.328;8.720;2023-04-03T15:29:47;1.15;;;0.80;;
14381;SDS011;7275;50.328;8.720;2023-04-03T15:32:15;1.25;;;0.90;;
14381;SDS011;7275;50.328;8.720;2023-04-03T15:34:42;1.45;;;1.00;;
14381;SDS011;7275;50.328;8.720;2023-04-03T15:37:10;1.70;;;0.93;;
14381;SDS011;7275;50.328;8.720;2023-04-03T15:39:37;2.35;;;1.80;;
14381;SDS011;7275;50.328;8.720;2023-04-03T15:42:05;1.70;;;1.35;;